createdAt,value
2023-02-20T00:00:07.141Z,0
2023-02-20T00:05:07.145Z,0
2023-02-20T00:10:07.138Z,0
2023-02-20T00:15:07.143Z,0
2023-02-20T00:20:07.131Z,0
2023-02-20T00:25:07.152Z,0
2023-02-20T00:30:07.147Z,0
2023-02-20T00:35:07.127Z,0
2023-02-20T00:40:07.113Z,0
2023-02-20T00:45:07.123Z,0
2023-02-20T00:50:07.121Z,0
2023-02-20T00:55:07.145Z,0
2023-02-20T01:00:07.102Z,0
2023-02-20T01:05:07.123Z,0
2023-02-20T01:10:07.132Z,0
2023-02-20T01:15:07.110Z,0
2023-02-20T01:20:07.101Z,0
2023-02-20T01:25:07.124Z,0
2023-02-20T01:30:07.152Z,0
2023-02-20T01:35:07.111Z,0
2023-02-20T01:40:07.090Z,0
2023-02-20T01:45:07.097Z,0
2023-02-20T01:50:07.121Z,0
2023-02-20T01:55:07.102Z,0
2023-02-20T02:00:09.314Z,0
2023-02-20T02:05:09.297Z,0
2023-02-20T02:10:09.305Z,0
2023-02-20T02:15:09.297Z,0
2023-02-20T02:20:09.308Z,0
2023-02-20T02:25:09.296Z,0
2023-02-20T02:30:09.382Z,0
2023-02-20T02:35:09.268Z,0
2023-02-20T02:40:09.327Z,0
2023-02-20T02:45:09.250Z,0
2023-02-20T02:50:09.274Z,0
2023-02-20T02:55:09.274Z,0
2023-02-20T03:00:09.267Z,0
2023-02-20T03:05:09.275Z,0
2023-02-20T03:10:09.237Z,0
2023-02-20T03:15:09.290Z,0
2023-02-20T03:20:09.290Z,0
2023-02-20T03:25:09.280Z,0
2023-02-20T03:30:09.278Z,0
2023-02-20T03:35:09.273Z,0
2023-02-20T03:40:09.267Z,0
2023-02-20T03:45:09.249Z,0
2023-02-20T03:50:09.249Z,0
2023-02-20T03:55:09.229Z,0
2023-02-20T04:00:09.286Z,0
2023-02-20T04:05:09.270Z,0
2023-02-20T04:10:09.227Z,0
2023-02-20T04:15:09.224Z,0
2023-02-20T04:20:09.260Z,0
2023-02-20T04:25:09.200Z,0
2023-02-20T04:30:09.250Z,0
2023-02-20T04:35:09.235Z,0
2023-02-20T04:40:09.207Z,0
2023-02-20T04:45:09.219Z,0
2023-02-20T04:50:09.214Z,0
2023-02-20T04:55:09.215Z,0
2023-02-20T05:00:09.236Z,0
2023-02-20T05:05:09.180Z,0
2023-02-20T05:10:09.212Z,0
2023-02-20T05:15:09.174Z,0
2023-02-20T05:20:09.374Z,0
2023-02-20T05:25:09.177Z,0
2023-02-20T05:30:09.214Z,0
2023-02-20T05:35:09.168Z,0
2023-02-20T05:40:09.200Z,0
2023-02-20T05:45:09.188Z,0
2023-02-20T05:50:09.154Z,0
2023-02-20T05:55:09.198Z,0
2023-02-20T06:00:09.188Z,0
2023-02-20T06:05:09.173Z,0
2023-02-20T06:10:09.175Z,0
2023-02-20T06:15:09.188Z,0
2023-02-20T06:20:09.190Z,0
2023-02-20T06:25:09.123Z,0
2023-02-20T06:30:09.192Z,0
2023-02-20T06:35:09.183Z,0
2023-02-20T06:40:09.173Z,0
2023-02-20T06:45:09.166Z,2
2023-02-20T06:50:09.170Z,3
2023-02-20T06:55:09.183Z,2
2023-02-20T07:00:09.158Z,6
2023-02-20T07:05:09.123Z,4
2023-02-20T07:10:09.156Z,11
2023-02-20T07:15:09.168Z,14
2023-02-20T07:20:09.170Z,18
2023-02-20T07:25:09.154Z,19
2023-02-20T07:30:09.150Z,22
2023-02-20T07:35:09.625Z,27
2023-02-20T07:40:09.162Z,27
2023-02-20T07:45:09.106Z,21
2023-02-20T07:50:09.144Z,21
2023-02-20T07:55:09.136Z,22
2023-02-20T08:00:09.146Z,20
2023-02-20T08:05:09.107Z,17
2023-02-20T08:10:09.116Z,20
2023-02-20T08:15:09.103Z,16
2023-02-20T08:20:09.158Z,15
2023-02-20T08:25:09.089Z,15
2023-02-20T08:30:09.091Z,20
2023-02-20T08:35:09.128Z,21
2023-02-20T08:40:09.136Z,21
2023-02-20T08:45:09.097Z,21
2023-02-20T08:50:09.116Z,25
2023-02-20T08:55:09.112Z,28
2023-02-20T09:00:09.117Z,28
2023-02-20T09:05:09.070Z,36
2023-02-20T09:10:09.338Z,41
2023-02-20T09:15:09.331Z,38
2023-02-20T09:20:09.410Z,41
2023-02-20T09:25:09.324Z,54
2023-02-20T09:30:09.391Z,54
2023-02-20T09:35:09.347Z,63
2023-02-20T09:40:09.379Z,67
2023-02-20T09:45:09.348Z,51
2023-02-20T09:50:09.292Z,38
2023-02-20T09:55:09.325Z,40
2023-02-20T10:00:09.344Z,33
2023-02-20T10:05:09.361Z,26
2023-02-20T10:10:09.296Z,26
2023-02-20T10:15:09.314Z,26
2023-02-20T10:20:09.364Z,26
2023-02-20T10:25:09.306Z,26
2023-02-20T10:30:09.345Z,36
2023-02-20T10:35:09.306Z,38
2023-02-20T10:40:09.355Z,39
2023-02-20T10:45:09.337Z,34
2023-02-20T10:50:09.314Z,42
2023-02-20T10:55:09.297Z,43
2023-02-20T11:00:09.341Z,42
2023-02-20T11:05:09.282Z,43
2023-02-20T11:10:09.277Z,41
2023-02-20T11:15:09.288Z,40
2023-02-20T11:20:09.369Z,51
2023-02-20T11:25:09.324Z,58
2023-02-20T11:30:09.308Z,109
2023-02-20T11:35:09.273Z,81
2023-02-20T11:40:09.330Z,57
2023-02-20T11:45:09.297Z,44
2023-02-20T11:50:18.592Z,38
2023-02-20T11:55:09.289Z,35
2023-02-20T12:00:09.316Z,37
2023-02-20T12:05:09.310Z,37
2023-02-20T12:10:09.261Z,35
2023-02-20T12:15:09.255Z,35
2023-02-20T12:20:09.308Z,43
2023-02-20T12:25:09.285Z,36
2023-02-20T12:30:09.329Z,39
2023-02-20T12:35:09.257Z,37
2023-02-20T12:40:09.302Z,30
2023-02-20T12:45:09.266Z,40
2023-02-20T12:50:09.246Z,31
2023-02-20T12:55:09.284Z,23
2023-02-20T13:00:09.287Z,29
2023-02-20T13:05:09.246Z,30
2023-02-20T13:10:09.275Z,34
2023-02-20T13:15:09.248Z,38
2023-02-20T13:20:09.253Z,30
2023-02-20T13:25:09.262Z,31
2023-02-20T13:30:09.316Z,31
2023-02-20T13:35:09.261Z,31
2023-02-20T13:40:09.244Z,32
2023-02-20T13:45:09.233Z,29
2023-02-20T13:50:09.274Z,33
2023-02-20T13:55:09.391Z,27
2023-02-20T14:00:09.297Z,18
2023-02-20T14:05:09.205Z,15
2023-02-20T14:10:11.527Z,19
2023-02-20T14:15:09.239Z,18
2023-02-20T14:20:14.582Z,20
2023-02-20T14:25:09.232Z,23
2023-02-20T14:30:09.278Z,29
2023-02-20T14:35:09.239Z,29
2023-02-20T14:40:09.233Z,25
2023-02-20T14:45:09.199Z,27
2023-02-20T14:50:09.240Z,22
2023-02-20T14:55:09.212Z,16
2023-02-20T15:00:09.256Z,16
2023-02-20T15:05:09.204Z,15
2023-02-20T15:10:09.227Z,17
2023-02-20T15:15:09.211Z,10
2023-02-20T15:20:09.259Z,14
2023-02-20T15:25:09.215Z,18
2023-02-20T15:30:09.192Z,12
2023-02-20T15:35:09.198Z,14
2023-02-20T15:40:09.245Z,14
2023-02-20T15:45:09.169Z,13
2023-02-20T15:50:09.230Z,11
2023-02-20T15:55:09.192Z,6
2023-02-20T16:00:09.195Z,7
2023-02-20T16:05:09.166Z,5
2023-02-20T16:10:09.183Z,2
2023-02-20T16:15:09.202Z,3
2023-02-20T16:20:09.209Z,2
2023-02-20T16:25:09.191Z,1
2023-02-20T16:30:09.362Z,0
2023-02-20T16:35:09.199Z,0
2023-02-20T16:40:09.208Z,0
2023-02-20T16:45:09.182Z,0
2023-02-20T16:50:09.196Z,0
2023-02-20T16:55:09.173Z,0
2023-02-20T17:00:09.180Z,0
2023-02-20T17:05:09.211Z,0
2023-02-20T17:10:09.142Z,0
2023-02-20T17:15:09.152Z,0
2023-02-20T17:20:09.208Z,0
2023-02-20T17:25:09.142Z,0
2023-02-20T17:30:09.181Z,0
2023-02-20T17:35:09.109Z,0
2023-02-20T17:40:09.175Z,0
2023-02-20T17:45:09.135Z,0
2023-02-20T17:50:09.134Z,0
2023-02-20T17:55:09.149Z,0
2023-02-20T18:00:09.187Z,0
2023-02-20T18:05:09.143Z,0
2023-02-20T18:10:09.108Z,0
2023-02-20T18:15:09.203Z,0
2023-02-20T18:20:09.170Z,0
2023-02-20T18:25:09.097Z,0
2023-02-20T18:30:09.247Z,0
2023-02-20T18:35:09.175Z,0
2023-02-20T18:40:09.386Z,0
2023-02-20T18:45:09.357Z,0
2023-02-20T18:50:09.362Z,0
2023-02-20T18:55:09.372Z,0
2023-02-20T19:00:09.403Z,0
2023-02-20T19:05:09.364Z,0
2023-02-20T19:10:09.338Z,0
2023-02-20T19:15:09.362Z,0
2023-02-20T19:20:09.368Z,0
2023-02-20T19:25:09.425Z,0
2023-02-20T19:30:09.414Z,0
2023-02-20T19:35:09.337Z,0
2023-02-20T19:40:09.411Z,0
2023-02-20T19:45:09.350Z,0
2023-02-20T19:50:09.368Z,0
2023-02-20T19:55:09.323Z,0
2023-02-20T20:00:09.376Z,0
2023-02-20T20:05:09.341Z,0
2023-02-20T20:10:09.330Z,0
2023-02-20T20:15:09.323Z,0
2023-02-20T20:20:09.330Z,0
2023-02-20T20:25:09.336Z,0
2023-02-20T20:30:09.354Z,0
2023-02-20T20:35:09.322Z,0
2023-02-20T20:40:09.339Z,0
2023-02-20T20:45:09.301Z,0
2023-02-20T20:50:09.307Z,0
2023-02-20T20:55:09.284Z,0
2023-02-20T21:00:09.371Z,0
2023-02-20T21:05:11.184Z,0
2023-02-20T21:10:09.313Z,0
2023-02-20T21:15:09.294Z,0
2023-02-20T21:20:09.330Z,0
2023-02-20T21:25:09.312Z,0
2023-02-20T21:30:09.379Z,0
2023-02-20T21:35:09.302Z,0
2023-02-20T21:40:09.299Z,0
2023-02-20T21:45:09.268Z,0
2023-02-20T21:50:09.287Z,0
2023-02-20T21:55:09.307Z,0
2023-02-20T22:00:09.305Z,0
2023-02-20T22:05:09.305Z,0
2023-02-20T22:10:09.292Z,0
2023-02-20T22:15:09.277Z,0
2023-02-20T22:20:09.304Z,0
2023-02-20T22:25:09.275Z,0
2023-02-20T22:30:09.402Z,0
2023-02-20T22:35:11.872Z,0
2023-02-20T22:40:09.307Z,0
2023-02-20T22:45:09.274Z,0
2023-02-20T22:50:09.260Z,0
2023-02-20T22:55:09.325Z,0
2023-02-20T23:00:09.257Z,0
2023-02-20T23:05:09.291Z,0
2023-02-20T23:10:09.307Z,0
2023-02-20T23:15:09.251Z,0
2023-02-20T23:20:09.255Z,0
2023-02-20T23:25:09.224Z,0
2023-02-20T23:30:09.326Z,0
2023-02-20T23:35:09.237Z,0
2023-02-20T23:40:09.272Z,0
2023-02-20T23:45:09.222Z,0
2023-02-20T23:50:09.210Z,0
2023-02-20T23:55:09.234Z,0
